Terminal Aerodrome Forecast
Issued by NWS Charleston, WV

Current Version | Previous Version | Graphics & Text | Print | Product List | Glossary On
Versions: 1 2 3 4 5 6 7 8 9 10 11 12 13 14 15 16 17 18 19 20 21 22 23 24 25 26 27
045
FTUS41 KRLX 170900 AAC
TAFBKW
TAF AMD
KBKW 170900Z 1709/1806 16006KT P6SM VCSH OVC050
     FM171100 19007KT 3SM -SHRA OVC040
     FM171600 22012G19KT P6SM OVC040
     FM172200 23012G18KT 5SM -SHRA OVC015=

USA.gov is the U.S. government's official web portal to all federal, state and local government web resources and services.